Time;durP1;ratioP1;P1;durP2;ratioP2;P2;SDS_P1;SDS_P2;PMS_P1;PMS_P2;Temp;Humidity;BMP_temperature;BMP_pressure;BME280_temperature;BME280_humidity;BME280_pressure;Samples;Min_cycle;Max_cycle;Signal;HPM_P1;HPM_P2
2023/03/20 03:16:05;;;;;;;0.80;0.80;;;;;;;;;;7341530;19;20240;-89
2023/03/20 03:24:01;;;;;;;0.40;0.40;;;;;;;;;;7397572;19;20180;-90
2023/03/20 03:27:23;;;;;;;0.30;0.30;;;;;;;;;;7375012;19;20279;-90
2023/03/20 03:30:56;;;;;;;0.40;0.40;;;;;;;;;;7393298;19;20252;-90
2023/03/20 03:33:58;;;;;;;;;;;;;;;;;;;;;
2023/03/20 03:36:54;;;;;;;0.67;0.67;;;;;;;;;;7349989;19;20223;-93
2023/03/20 03:39:47;;;;;;;;;;;;;;;;;;;;;
2023/03/20 03:42:44;;;;;;;0.40;0.40;;;;;;;;;;7387906;19;20196;-90
2023/03/20 03:45:28;;;;;;;0.60;0.60;;;;;;;;;;7371775;19;20192;-90
2023/03/20 03:48:36;;;;;;;0.47;0.47;;;;;;;;;;7374889;19;20263;-90
2023/03/20 03:51:13;;;;;;;1.30;0.40;;;;;;;;;;7366489;19;20263;-91
2023/03/20 03:54:12;;;;;;;0.37;0.37;;;;;;;;;;7372975;19;20216;-91
2023/03/20 03:56:47;;;;;;;0.70;0.70;;;;;;;;;;7391740;19;20211;-90
2023/03/20 04:00:05;;;;;;;0.47;0.37;;;;;;;;;;7388616;19;20217;-90
2023/03/20 04:03:26;;;;;;;;;;;;;;;;;;;;;
2023/03/20 04:06:11;;;;;;;0.40;0.40;;;;;;;;;;7370758;19;20196;-90
2023/03/20 04:08:42;;;;;;;0.30;0.30;;;;;;;;;;7373164;19;20196;-90
2023/03/20 04:11:17;;;;;;;1.90;0.70;;;;;;;;;;7391589;19;20213;-89
2023/03/20 04:13:53;;;;;;;1.33;0.90;;;;;;;;;;7395681;19;20188;-89
2023/03/20 04:16:21;;;;;;;0.50;0.50;;;;;;;;;;7393817;19;20604;-89
2023/03/20 04:18:49;;;;;;;0.70;0.70;;;;;;;;;;7393028;19;20206;-90
2023/03/20 04:21:25;;;;;;;0.40;0.40;;;;;;;;;;7355070;19;20516;-89
2023/03/20 04:24:09;;;;;;;0.63;0.63;;;;;;;;;;7390740;19;20196;-89
2023/03/20 04:26:47;;;;;;;0.50;0.50;;;;;;;;;;7408519;19;20198;-90
2023/03/20 04:29:21;;;;;;;0.43;0.43;;;;;;;;;;7387847;19;20199;-90
2023/03/20 04:32:05;;;;;;;0.43;0.43;;;;;;;;;;7384443;19;20192;-89
2023/03/20 04:35:21;;;;;;;0.53;0.53;;;;;;;;;;7374379;19;20205;-89
2023/03/20 04:45:25;;;;;;;0.50;0.50;;;;;;;;;;7327954;19;20204;-89
2023/03/20 04:48:09;;;;;;;0.30;0.30;;;;;;;;;;7347301;19;20256;-89
2023/03/20 04:51:02;;;;;;;0.70;0.70;;;;;;;;;;7391795;19;20612;-89
2023/03/20 04:53:47;;;;;;;0.30;0.30;;;;;;;;;;7394582;19;20192;-89
2023/03/20 04:56:35;;;;;;;0.20;0.20;;;;;;;;;;7365458;19;20195;-89
2023/03/20 04:59:51;;;;;;;0.30;0.30;;;;;;;;;;7386512;19;20203;-90
2023/03/20 05:02:32;;;;;;;0.50;0.50;;;;;;;;;;7352259;19;20227;-90
2023/03/20 05:05:12;;;;;;;0.60;0.60;;;;;;;;;;7393742;19;20213;-89
2023/03/20 05:07:51;;;;;;;0.30;0.30;;;;;;;;;;7394734;19;20210;-89
2023/03/20 05:10:19;;;;;;;2.80;0.70;;;;;;;;;;7370361;19;20662;-90
2023/03/20 05:13:12;;;;;;;0.63;0.63;;;;;;;;;;7348330;19;20196;-90
2023/03/20 05:27:30;;;;;;;0.50;0.50;;;;;;;;;;7393160;19;20184;-90
2023/03/20 05:30:13;;;;;;;0.30;0.30;;;;;;;;;;7368229;19;20196;-89
2023/03/20 05:32:44;;;;;;;0.50;0.50;;;;;;;;;;7390275;19;20208;-89
2023/03/20 05:35:14;;;;;;;1.17;1.07;;;;;;;;;;7387897;19;20681;-90
2023/03/20 05:37:47;;;;;;;0.97;0.50;;;;;;;;;;7368040;19;20216;-89
2023/03/20 05:43:43;;;;;;;0.60;0.60;;;;;;;;;;7385149;19;20827;-91
2023/03/20 07:27:21;;;;;;;0.30;0.30;;;;;;;;;;7395929;19;20157;-93
2023/03/20 07:30:03;;;;;;;0.83;0.83;;;;;;;;;;7390959;19;20141;-92
2023/03/20 07:37:01;;;;;;;;;;;;;;;;;;;;;
2023/03/20 07:46:46;;;;;;;0.83;0.60;;;;;;;;;;7390081;19;20589;-91
2023/03/20 07:49:36;;;;;;;0.40;0.40;;;;;;;;;;7391036;19;20164;-91
2023/03/20 07:52:07;;;;;;;0.30;0.30;;;;;;;;;;7392075;19;20141;-93
2023/03/20 07:54:34;;;;;;;0.43;0.43;;;;;;;;;;7393278;19;20125;-92
2023/03/20 07:57:01;;;;;;;0.20;0.20;;;;;;;;;;7395321;19;20141;-92
2023/03/20 07:59:43;;;;;;;0.93;0.93;;;;;;;;;;7393157;19;20254;-93
2023/03/20 08:02:28;;;;;;;0.30;0.30;;;;;;;;;;7392756;19;20137;-93
2023/03/20 08:05:06;;;;;;;2.10;1.50;;;;;;;;;;7395723;19;20564;-91
2023/03/20 08:07:44;;;;;;;0.40;0.40;;;;;;;;;;7397100;19;20615;-91
2023/03/20 08:10:15;;;;;;;0.43;0.43;;;;;;;;;;7398111;19;20148;-92
2023/03/20 08:12:56;;;;;;;0.30;0.30;;;;;;;;;;7396039;19;20129;-93
2023/03/20 08:15:23;;;;;;;0.60;0.60;;;;;;;;;;7401411;19;20141;-91
2023/03/20 08:17:51;;;;;;;0.73;0.70;;;;;;;;;;7396312;19;20220;-89
2023/03/20 08:20:38;;;;;;;0.43;0.43;;;;;;;;;;7402571;19;20141;-91
2023/03/20 08:23:18;;;;;;;0.57;0.57;;;;;;;;;;7399892;19;20173;-92
2023/03/20 08:25:48;;;;;;;0.60;0.60;;;;;;;;;;7398974;19;20129;-92
2023/03/20 08:28:22;;;;;;;0.70;0.70;;;;;;;;;;7394508;19;20176;-92
2023/03/20 08:31:15;;;;;;;0.73;0.73;;;;;;;;;;7396976;19;20209;-92
2023/03/20 08:33:50;;;;;;;0.60;0.60;;;;;;;;;;7397499;19;20536;-94
2023/03/20 08:36:31;;;;;;;0.53;0.53;;;;;;;;;;7396333;19;20148;-92
2023/03/20 08:39:06;;;;;;;0.40;0.40;;;;;;;;;;7395858;19;20172;-93
2023/03/20 08:41:40;;;;;;;0.73;0.73;;;;;;;;;;7396755;19;20149;-91
2023/03/20 08:44:10;;;;;;;0.40;0.40;;;;;;;;;;7397998;19;20172;-91
2023/03/20 08:46:42;;;;;;;0.67;0.67;;;;;;;;;;7400964;19;20125;-92
2023/03/20 08:49:15;;;;;;;0.30;0.30;;;;;;;;;;7394631;19;20249;-93
2023/03/20 08:54:51;;;;;;;0.50;0.50;;;;;;;;;;7393621;19;20137;-89
2023/03/20 09:01:14;;;;;;;0.30;0.30;;;;;;;;;;7395595;19;20112;-91
2023/03/20 09:07:27;;;;;;;0.37;0.37;;;;;;;;;;7395428;19;20133;-93
2023/03/20 09:10:21;;;;;;;0.40;0.40;;;;;;;;;;7397476;19;20137;-92
2023/03/20 09:16:51;;;;;;;1.07;1.07;;;;;;;;;;7397469;19;20125;-94
2023/03/20 09:20:27;;;;;;;;;;;;;;;;;;;;;
2023/03/20 09:23:41;;;;;;;0.30;0.30;;;;;;;;;;7390571;19;20627;-92
2023/03/20 09:26:39;;;;;;;0.30;0.30;;;;;;;;;;7391693;19;20152;-92
2023/03/20 09:33:04;;;;;;;0.40;0.40;;;;;;;;;;7394413;19;20115;-92
2023/03/20 09:35:42;;;;;;;0.40;0.40;;;;;;;;;;7394188;19;20128;-91
2023/03/20 09:38:54;;;;;;;0.37;0.37;;;;;;;;;;7393757;19;20164;-92
2023/03/20 09:41:49;;;;;;;0.30;0.30;;;;;;;;;;7400842;19;20152;-91
2023/03/20 09:48:45;;;;;;;0.30;0.30;;;;;;;;;;7398476;19;20148;-89
2023/03/20 09:55:06;;;;;;;0.33;0.33;;;;;;;;;;7391868;19;20518;-93
2023/03/20 10:01:51;;;;;;;0.30;0.30;;;;;;;;;;7392534;19;20268;-92
2023/03/20 10:13:40;;;;;;;0.30;0.30;;;;;;;;;;7428276;19;20157;-93
2023/03/20 10:16:39;;;;;;;2.53;0.70;;;;;;;;;;7410410;19;20154;-91
2023/03/20 10:19:59;;;;;;;;;;;;;;;;;;;;;
2023/03/20 10:22:57;;;;;;;0.60;0.60;;;;;;;;;;7387322;19;20176;-91
2023/03/20 10:25:59;;;;;;;0.20;0.20;;;;;;;;;;7393274;19;20140;-92
2023/03/20 10:28:37;;;;;;;0.50;0.50;;;;;;;;;;7392681;19;20225;-91
2023/03/20 10:31:25;;;;;;;0.30;0.30;;;;;;;;;;7393823;19;20133;-88
2023/03/20 10:33:58;;;;;;;0.30;0.30;;;;;;;;;;7401403;19;20132;-89
2023/03/20 10:36:47;;;;;;;0.30;0.30;;;;;;;;;;7401424;19;20137;-88
2023/03/20 10:43:02;;;;;;;0.40;0.40;;;;;;;;;;7403029;19;20109;-89
2023/03/20 10:45:39;;;;;;;0.57;0.57;;;;;;;;;;7402534;19;20136;-90
2023/03/20 10:48:14;;;;;;;0.30;0.30;;;;;;;;;;7403045;19;20178;-88
2023/03/20 10:51:05;;;;;;;0.20;0.20;;;;;;;;;;7403367;19;20152;-90
2023/03/20 10:53:52;;;;;;;0.30;0.30;;;;;;;;;;7403974;19;20160;-87
2023/03/20 10:56:30;;;;;;;0.53;0.53;;;;;;;;;;7398619;19;20136;-90
2023/03/20 10:59:35;;;;;;;0.30;0.30;;;;;;;;;;7392787;19;20184;-90
2023/03/20 11:02:09;;;;;;;0.77;0.77;;;;;;;;;;7395548;19;20237;-88
2023/03/20 11:04:37;;;;;;;0.30;0.30;;;;;;;;;;7399027;19;20216;-88
2023/03/20 11:07:18;;;;;;;0.30;0.30;;;;;;;;;;7398467;19;20145;-89
2023/03/20 11:09:45;;;;;;;0.30;0.30;;;;;;;;;;7394116;19;20587;-89
2023/03/20 11:12:19;;;;;;;0.30;0.30;;;;;;;;;;7395086;19;20141;-89
2023/03/20 11:14:46;;;;;;;0.30;0.30;;;;;;;;;;7393519;19;20152;-89
2023/03/20 11:17:13;;;;;;;0.40;0.40;;;;;;;;;;7396130;19;20131;-89
2023/03/20 11:19:40;;;;;;;0.50;0.50;;;;;;;;;;7398422;19;20153;-91
2023/03/20 11:22:27;;;;;;;0.30;0.30;;;;;;;;;;7400927;19;20133;-90
2023/03/20 11:24:57;;;;;;;0.30;0.30;;;;;;;;;;7402337;19;20129;-88
2023/03/20 11:27:26;;;;;;;0.30;0.30;;;;;;;;;;7403032;19;20164;-88
2023/03/20 11:29:53;;;;;;;0.30;0.30;;;;;;;;;;7405892;19;20144;-88
2023/03/20 11:32:27;;;;;;;0.30;0.30;;;;;;;;;;7405519;19;20157;-88
2023/03/20 11:34:56;;;;;;;0.40;0.40;;;;;;;;;;7407283;19;20132;-88
2023/03/20 11:37:28;;;;;;;0.30;0.30;;;;;;;;;;7406230;19;20145;-88
2023/03/20 11:40:09;;;;;;;0.30;0.30;;;;;;;;;;7407474;19;20149;-89
2023/03/20 11:42:36;;;;;;;0.30;0.30;;;;;;;;;;7409275;19;20145;-89
2023/03/20 11:45:15;;;;;;;0.30;0.30;;;;;;;;;;7412878;19;20176;-90
2023/03/20 11:47:41;;;;;;;0.40;0.40;;;;;;;;;;7422711;19;20184;-88
2023/03/20 11:50:24;;;;;;;0.30;0.30;;;;;;;;;;7430129;19;20530;-86
2023/03/20 11:52:51;;;;;;;0.32;0.32;;;;;;;;;;7430895;19;20156;-87
2023/03/20 11:55:30;;;;;;;0.30;0.30;;;;;;;;;;7429922;19;20129;-88
2023/03/20 11:58:02;;;;;;;0.30;0.30;;;;;;;;;;7431353;19;20175;-87
2023/03/20 12:00:35;;;;;;;0.50;0.50;;;;;;;;;;7410611;19;20148;-89
2023/03/20 12:03:02;;;;;;;0.43;0.43;;;;;;;;;;7401457;19;20155;-90
2023/03/20 12:05:30;;;;;;;0.30;0.25;;;;;;;;;;7401016;19;20145;-89
2023/03/20 12:08:20;;;;;;;0.47;0.47;;;;;;;;;;7396811;19;20184;-89
2023/03/20 12:10:53;;;;;;;0.30;0.30;;;;;;;;;;7395845;19;20195;-89
2023/03/20 12:13:32;;;;;;;0.57;0.57;;;;;;;;;;7397928;19;20165;-88
2023/03/20 12:16:05;;;;;;;0.30;0.30;;;;;;;;;;7404402;19;20189;-89
2023/03/20 12:18:38;;;;;;;0.30;0.30;;;;;;;;;;7402637;19;20169;-89
2023/03/20 12:21:21;;;;;;;0.30;0.30;;;;;;;;;;7404111;19;20149;-89
2023/03/20 12:23:58;;;;;;;0.30;0.30;;;;;;;;;;7401256;19;20159;-89
2023/03/20 12:26:34;;;;;;;0.30;0.30;;;;;;;;;;7402266;19;20484;-89
2023/03/20 12:29:42;;;;;;;0.28;0.28;;;;;;;;;;7399105;19;20172;-87
2023/03/20 12:32:16;;;;;;;0.30;0.30;;;;;;;;;;7402603;19;20140;-88
2023/03/20 12:34:46;;;;;;;0.40;0.40;;;;;;;;;;7398216;19;20180;-90
2023/03/20 12:37:17;;;;;;;0.30;0.30;;;;;;;;;;7405542;19;20524;-88
2023/03/20 12:39:56;;;;;;;0.30;0.30;;;;;;;;;;7406073;19;20141;-89
2023/03/20 12:42:41;;;;;;;0.45;0.45;;;;;;;;;;7401439;19;20164;-91
2023/03/20 12:45:14;;;;;;;0.30;0.30;;;;;;;;;;7397823;19;20144;-90
2023/03/20 12:48:09;;;;;;;0.30;0.30;;;;;;;;;;7395542;19;20177;-91
2023/03/20 12:50:39;;;;;;;0.40;0.40;;;;;;;;;;7394337;19;20141;-90
2023/03/20 12:53:22;;;;;;;0.30;0.30;;;;;;;;;;7394557;19;20163;-91
2023/03/20 12:56:01;;;;;;;0.47;0.47;;;;;;;;;;7393981;19;20144;-90
2023/03/20 12:58:39;;;;;;;0.30;0.30;;;;;;;;;;7390839;19;20172;-91
2023/03/20 13:01:27;;;;;;;0.30;0.30;;;;;;;;;;7395621;19;20815;-90
2023/03/20 13:04:15;;;;;;;0.30;0.30;;;;;;;;;;7397256;19;20143;-91
2023/03/20 13:06:55;;;;;;;0.40;0.40;;;;;;;;;;7396077;19;20144;-91
2023/03/20 13:09:57;;;;;;;0.30;0.30;;;;;;;;;;7395385;19;20199;-91
2023/03/20 13:12:35;;;;;;;0.30;0.30;;;;;;;;;;7393952;19;20217;-91
2023/03/20 13:15:37;;;;;;;0.40;0.40;;;;;;;;;;7395706;19;20145;-91
2023/03/20 13:18:10;;;;;;;0.30;0.30;;;;;;;;;;7394115;19;20184;-91
2023/03/20 13:21:03;;;;;;;0.40;0.40;;;;;;;;;;7396474;19;20141;-91
2023/03/20 13:23:53;;;;;;;0.30;0.30;;;;;;;;;;7395086;19;20189;-91
2023/03/20 13:26:36;;;;;;;0.30;0.30;;;;;;;;;;7397525;19;20145;-89
2023/03/20 13:29:31;;;;;;;0.40;0.40;;;;;;;;;;7395236;19;20165;-89
2023/03/20 13:32:17;;;;;;;0.65;0.63;;;;;;;;;;7398038;19;20157;-88
2023/03/20 13:35:11;;;;;;;0.30;0.30;;;;;;;;;;7397298;19;20148;-89
2023/03/20 13:37:52;;;;;;;0.30;0.30;;;;;;;;;;7397805;19;20169;-88
2023/03/20 13:40:29;;;;;;;0.30;0.30;;;;;;;;;;7395173;19;20140;-88
2023/03/20 13:42:58;;;;;;;0.30;0.30;;;;;;;;;;7402317;19;20161;-89
2023/03/20 13:45:36;;;;;;;0.30;0.30;;;;;;;;;;7401489;19;20496;-87
2023/03/20 13:48:35;;;;;;;0.30;0.30;;;;;;;;;;7398360;19;20396;-88
2023/03/20 13:51:05;;;;;;;0.30;0.30;;;;;;;;;;7398660;19;20137;-89
2023/03/20 13:53:57;;;;;;;0.30;0.30;;;;;;;;;;7397322;19;20152;-88
2023/03/20 13:56:33;;;;;;;0.30;0.30;;;;;;;;;;7397903;19;20483;-90
2023/03/20 13:59:08;;;;;;;0.30;0.30;;;;;;;;;;7392393;19;20646;-91
2023/03/20 14:01:56;;;;;;;0.20;0.20;;;;;;;;;;7394908;19;20157;-88
2023/03/20 14:04:24;;;;;;;0.30;0.30;;;;;;;;;;7398048;19;20143;-88
2023/03/20 14:06:54;;;;;;;0.30;0.30;;;;;;;;;;7399730;19;20141;-88
2023/03/20 14:09:35;;;;;;;0.30;0.30;;;;;;;;;;7396623;19;20248;-89
2023/03/20 14:12:06;;;;;;;0.30;0.30;;;;;;;;;;7397626;19;20145;-89
2023/03/20 14:14:45;;;;;;;0.52;0.52;;;;;;;;;;7400428;19;20244;-89
2023/03/20 14:17:21;;;;;;;0.30;0.30;;;;;;;;;;7393600;19;20196;-89
2023/03/20 14:19:49;;;;;;;0.30;0.30;;;;;;;;;;7391861;19;20152;-90
2023/03/20 14:22:20;;;;;;;0.50;0.40;;;;;;;;;;7395453;19;20169;-90
2023/03/20 14:24:52;;;;;;;0.32;0.32;;;;;;;;;;7394589;19;20145;-90
2023/03/20 14:27:21;;;;;;;0.52;0.52;;;;;;;;;;7393627;19;20151;-90
2023/03/20 14:30:31;;;;;;;0.28;0.28;;;;;;;;;;7396895;19;20148;-90
2023/03/20 14:33:18;;;;;;;0.30;0.30;;;;;;;;;;7394968;19;20216;-90
2023/03/20 14:35:50;;;;;;;0.30;0.30;;;;;;;;;;7395731;19;20153;-90
2023/03/20 14:38:32;;;;;;;0.60;0.60;;;;;;;;;;7395559;19;20247;-90
2023/03/20 14:41:05;;;;;;;0.30;0.30;;;;;;;;;;7396541;19;20144;-91
2023/03/20 14:43:57;;;;;;;0.30;0.30;;;;;;;;;;7399049;19;20160;-91
2023/03/20 14:46:30;;;;;;;0.40;0.40;;;;;;;;;;7395611;19;20184;-90
2023/03/20 14:49:03;;;;;;;0.30;0.30;;;;;;;;;;7395039;19;20529;-89
2023/03/20 14:51:41;;;;;;;0.30;0.30;;;;;;;;;;7396203;19;20172;-89
2023/03/20 14:54:28;;;;;;;0.30;0.30;;;;;;;;;;7393382;19;20133;-90
2023/03/20 15:00:36;;;;;;;0.47;0.47;;;;;;;;;;7405053;19;20161;-89
2023/03/20 15:03:59;;;;;;;0.30;0.30;;;;;;;;;;7400627;19;20136;-90
2023/03/20 15:12:37;;;;;;;0.30;0.30;;;;;;;;;;7374974;19;20275;-88
2023/03/20 15:15:06;;;;;;;0.40;0.40;;;;;;;;;;7403876;19;20164;-87
2023/03/20 15:17:43;;;;;;;0.50;0.50;;;;;;;;;;7405240;19;20149;-89
2023/03/20 15:20:23;;;;;;;0.30;0.30;;;;;;;;;;7407659;19;20678;-87
2023/03/20 15:22:57;;;;;;;0.30;0.30;;;;;;;;;;7404284;19;20172;-87
2023/03/20 15:25:32;;;;;;;0.32;0.32;;;;;;;;;;7404650;19;20140;-88
2023/03/20 15:27:59;;;;;;;0.30;0.30;;;;;;;;;;7405725;19;20152;-88
2023/03/20 15:30:26;;;;;;;0.30;0.30;;;;;;;;;;7408635;19;20153;-88
2023/03/20 15:32:54;;;;;;;0.40;0.40;;;;;;;;;;7405503;19;20137;-87
2023/03/20 15:35:22;;;;;;;0.50;0.50;;;;;;;;;;7402044;19;20141;-92
2023/03/20 15:37:52;;;;;;;0.30;0.30;;;;;;;;;;7399661;19;20172;-90
2023/03/20 15:40:40;;;;;;;0.40;0.40;;;;;;;;;;7399965;19;20137;-92
2023/03/20 15:43:23;;;;;;;0.30;0.30;;;;;;;;;;7402846;19;20172;-89
2023/03/20 15:46:04;;;;;;;0.30;0.30;;;;;;;;;;7404321;19;20611;-90
2023/03/20 15:48:48;;;;;;;0.30;0.30;;;;;;;;;;7399437;19;20185;-89
2023/03/20 15:51:16;;;;;;;0.30;0.30;;;;;;;;;;7400661;19;20497;-89
2023/03/20 15:53:45;;;;;;;0.45;0.45;;;;;;;;;;7398601;19;20247;-88
2023/03/20 15:56:14;;;;;;;0.30;0.30;;;;;;;;;;7401821;19;20164;-90
2023/03/20 15:58:46;;;;;;;0.30;0.30;;;;;;;;;;7426853;19;20157;-92
2023/03/20 16:01:17;;;;;;;0.38;0.38;;;;;;;;;;7434500;19;20165;-92
2023/03/20 16:03:43;;;;;;;0.20;0.20;;;;;;;;;;7433233;19;20137;-91
2023/03/20 16:06:13;;;;;;;0.43;0.43;;;;;;;;;;7433534;19;20152;-91
2023/03/20 16:08:40;;;;;;;0.40;0.38;;;;;;;;;;7401838;19;20168;-89
2023/03/20 16:11:12;;;;;;;0.50;0.50;;;;;;;;;;7399562;19;20152;-90
2023/03/20 16:13:41;;;;;;;0.40;0.40;;;;;;;;;;7394413;19;20174;-90
2023/03/20 16:16:13;;;;;;;0.30;0.30;;;;;;;;;;7400201;19;20148;-91
2023/03/20 16:18:40;;;;;;;0.30;0.30;;;;;;;;;;7397810;19;20176;-91
2023/03/20 16:21:18;;;;;;;0.30;0.30;;;;;;;;;;7399716;19;20587;-91
2023/03/20 16:23:47;;;;;;;0.30;0.30;;;;;;;;;;7398571;19;20477;-92
2023/03/20 16:26:16;;;;;;;0.20;0.20;;;;;;;;;;7398817;19;20667;-90
2023/03/20 16:28:50;;;;;;;0.30;0.30;;;;;;;;;;7397571;19;20167;-91
2023/03/20 16:31:34;;;;;;;0.30;0.30;;;;;;;;;;7398937;19;20164;-91
2023/03/20 16:34:16;;;;;;;0.30;0.30;;;;;;;;;;7397088;19;20137;-92
2023/03/20 16:36:50;;;;;;;0.30;0.30;;;;;;;;;;7397999;19;20910;-91
2023/03/20 16:39:17;;;;;;;0.30;0.30;;;;;;;;;;7396474;19;20160;-92
2023/03/20 16:41:45;;;;;;;0.30;0.30;;;;;;;;;;7398782;19;20463;-91
2023/03/20 16:44:12;;;;;;;0.30;0.30;;;;;;;;;;7400341;19;20133;-91
2023/03/20 16:46:55;;;;;;;0.30;0.30;;;;;;;;;;7399242;19;20143;-91
2023/03/20 16:49:28;;;;;;;0.40;0.40;;;;;;;;;;7397389;19;20177;-90
2023/03/20 16:52:00;;;;;;;0.30;0.30;;;;;;;;;;7394948;19;20148;-91
2023/03/20 16:54:29;;;;;;;0.30;0.30;;;;;;;;;;7397533;19;20140;-90
2023/03/20 16:56:56;;;;;;;0.30;0.30;;;;;;;;;;7394637;19;20149;-91
2023/03/20 16:59:24;;;;;;;0.30;0.30;;;;;;;;;;7394478;19;20169;-90
2023/03/20 17:01:52;;;;;;;0.30;0.30;;;;;;;;;;7403039;19;20125;-87
2023/03/20 17:04:22;;;;;;;0.30;0.30;;;;;;;;;;7403578;19;20145;-88
2023/03/20 17:06:52;;;;;;;0.30;0.30;;;;;;;;;;7417652;19;20228;-90
2023/03/20 17:09:24;;;;;;;0.63;0.63;;;;;;;;;;7427290;19;20160;-90
2023/03/20 17:12:00;;;;;;;0.57;0.30;;;;;;;;;;7430280;19;20153;-89
2023/03/20 17:14:27;;;;;;;0.30;0.30;;;;;;;;;;7426139;19;20145;-89
2023/03/20 17:16:56;;;;;;;0.30;0.30;;;;;;;;;;7430907;19;20149;-90
2023/03/20 17:19:23;;;;;;;0.30;0.30;;;;;;;;;;7425182;19;20157;-89
2023/03/20 17:21:50;;;;;;;0.30;0.30;;;;;;;;;;7431262;19;20156;-89
2023/03/20 17:24:17;;;;;;;0.30;0.30;;;;;;;;;;7421380;19;20141;-89
2023/03/20 17:26:48;;;;;;;0.30;0.30;;;;;;;;;;7399341;19;20144;-92
2023/03/20 17:29:15;;;;;;;0.30;0.30;;;;;;;;;;7397626;19;20157;-89
2023/03/20 17:31:42;;;;;;;0.40;0.40;;;;;;;;;;7402967;19;20144;-90
2023/03/20 17:34:12;;;;;;;0.30;0.30;;;;;;;;;;7399148;19;20142;-89
2023/03/20 17:36:39;;;;;;;0.30;0.30;;;;;;;;;;7401095;19;20137;-89
2023/03/20 17:39:06;;;;;;;0.43;0.43;;;;;;;;;;7396674;19;20149;-90
2023/03/20 17:41:32;;;;;;;0.40;0.40;;;;;;;;;;7400873;19;20136;-90
2023/03/20 17:43:59;;;;;;;0.30;0.30;;;;;;;;;;7397799;19;20137;-93
2023/03/20 17:46:28;;;;;;;0.30;0.30;;;;;;;;;;7396388;19;20200;-90
2023/03/20 17:49:01;;;;;;;0.40;0.40;;;;;;;;;;7393312;19;20168;-91
2023/03/20 17:51:28;;;;;;;0.30;0.30;;;;;;;;;;7395607;19;20137;-93
2023/03/20 17:53:56;;;;;;;0.40;0.40;;;;;;;;;;7393775;19;20161;-90
2023/03/20 17:56:32;;;;;;;0.37;0.37;;;;;;;;;;7392903;19;20141;-91
2023/03/20 17:59:02;;;;;;;0.33;0.33;;;;;;;;;;7392420;19;20187;-91
2023/03/20 18:01:29;;;;;;;0.30;0.30;;;;;;;;;;7398328;19;20156;-91
2023/03/20 18:03:58;;;;;;;0.30;0.30;;;;;;;;;;7394895;19;20185;-92
2023/03/20 18:06:26;;;;;;;0.40;0.40;;;;;;;;;;7396455;19;20133;-90
2023/03/20 18:08:53;;;;;;;0.53;0.53;;;;;;;;;;7394597;19;20662;-89
2023/03/20 18:11:20;;;;;;;2.00;0.50;;;;;;;;;;7396065;19;20132;-90
2023/03/20 18:13:47;;;;;;;0.30;0.30;;;;;;;;;;7394061;19;20137;-89
2023/03/20 18:16:16;;;;;;;1.20;1.17;;;;;;;;;;7394860;19;20478;-91
2023/03/20 18:18:53;;;;;;;0.30;0.30;;;;;;;;;;7396727;19;21072;-90
2023/03/20 18:21:20;;;;;;;0.30;0.30;;;;;;;;;;7394591;19;20129;-89
2023/03/20 18:23:47;;;;;;;0.30;0.30;;;;;;;;;;7397617;19;20133;-89
2023/03/20 18:26:21;;;;;;;0.63;0.63;;;;;;;;;;7395955;19;20459;-90
2023/03/20 18:28:49;;;;;;;0.30;0.30;;;;;;;;;;7396310;19;20161;-89
2023/03/20 18:31:17;;;;;;;0.30;0.30;;;;;;;;;;7393905;19;20216;-89
2023/03/20 18:33:49;;;;;;;0.30;0.30;;;;;;;;;;7392953;19;20151;-89
2023/03/20 18:36:18;;;;;;;0.30;0.30;;;;;;;;;;7398097;19;20148;-89
2023/03/20 18:38:45;;;;;;;0.20;0.20;;;;;;;;;;7393619;19;20161;-91
2023/03/20 18:41:12;;;;;;;0.30;0.30;;;;;;;;;;7394070;19;20125;-89
2023/03/20 18:43:39;;;;;;;0.37;0.37;;;;;;;;;;7392426;19;20844;-91
2023/03/20 18:46:08;;;;;;;0.30;0.30;;;;;;;;;;7396736;19;20129;-92
2023/03/20 18:48:35;;;;;;;0.30;0.30;;;;;;;;;;7394568;19;20175;-93
2023/03/20 18:51:01;;;;;;;0.40;0.40;;;;;;;;;;7397280;19;20140;-94
2023/03/20 18:53:28;;;;;;;0.40;0.40;;;;;;;;;;7394784;19;20145;-93
2023/03/20 18:55:55;;;;;;;0.73;0.73;;;;;;;;;;7396162;19;20133;-93
2023/03/20 18:58:25;;;;;;;0.30;0.30;;;;;;;;;;7392436;19;20302;-94
2023/03/20 19:00:53;;;;;;;2.43;0.53;;;;;;;;;;7396296;19;20141;-93
2023/03/20 19:03:24;;;;;;;0.57;0.57;;;;;;;;;;7396449;19;20137;-93
2023/03/20 19:05:53;;;;;;;0.30;0.30;;;;;;;;;;7396677;19;20144;-94
2023/03/20 19:08:20;;;;;;;0.30;0.30;;;;;;;;;;7393932;19;20173;-93
2023/03/20 19:10:48;;;;;;;0.30;0.30;;;;;;;;;;7395407;19;20141;-94
2023/03/20 19:13:17;;;;;;;0.37;0.37;;;;;;;;;;7393035;19;20137;-93
2023/03/20 19:15:44;;;;;;;0.50;0.50;;;;;;;;;;7395787;19;20145;-94
2023/03/20 19:18:20;;;;;;;0.40;0.40;;;;;;;;;;7393740;19;20631;-94
2023/03/20 19:20:48;;;;;;;0.30;0.30;;;;;;;;;;7394876;19;20139;-91
2023/03/20 19:23:16;;;;;;;0.30;0.30;;;;;;;;;;7410389;19;20496;-92
2023/03/20 19:25:45;;;;;;;0.30;0.30;;;;;;;;;;7400881;19;20145;-93
2023/03/20 19:28:31;;;;;;;0.30;0.30;;;;;;;;;;7397306;19;20157;-88
2023/03/20 19:31:07;;;;;;;0.40;0.40;;;;;;;;;;7391199;19;20145;-90
2023/03/20 19:33:35;;;;;;;0.90;0.90;;;;;;;;;;7390748;19;20173;-89
2023/03/20 19:36:02;;;;;;;0.40;0.40;;;;;;;;;;7397012;19;20193;-88
2023/03/20 19:38:30;;;;;;;0.30;0.30;;;;;;;;;;7395238;19;20157;-87
2023/03/20 19:40:58;;;;;;;0.77;0.60;;;;;;;;;;7404174;19;20245;-93
2023/03/20 19:43:25;;;;;;;0.50;0.50;;;;;;;;;;7402474;19;20152;-92
2023/03/20 19:45:54;;;;;;;0.57;0.57;;;;;;;;;;7408622;19;20502;-93
2023/03/20 19:48:28;;;;;;;0.33;0.33;;;;;;;;;;7406764;19;21437;-92
2023/03/20 19:51:20;;;;;;;0.30;0.30;;;;;;;;;;7397159;19;20133;-92
2023/03/20 19:53:48;;;;;;;0.37;0.37;;;;;;;;;;7394815;19;20141;-93
2023/03/20 19:56:15;;;;;;;0.50;0.50;;;;;;;;;;7395876;19;20476;-91
2023/03/20 19:58:42;;;;;;;1.43;0.73;;;;;;;;;;7395941;19;20157;-91
2023/03/20 20:01:14;;;;;;;0.30;0.30;;;;;;;;;;7396557;19;20401;-91
2023/03/20 20:03:41;;;;;;;0.50;0.50;;;;;;;;;;7397534;19;20616;-94
2023/03/20 20:06:08;;;;;;;0.50;0.50;;;;;;;;;;7406483;19;20618;-92
2023/03/20 20:08:37;;;;;;;0.40;0.40;;;;;;;;;;7402152;19;20202;-91
2023/03/20 20:11:18;;;;;;;0.60;0.50;;;;;;;;;;7396888;19;20128;-92
2023/03/20 20:13:45;;;;;;;0.30;0.30;;;;;;;;;;7410616;19;20125;-92
2023/03/20 20:16:33;;;;;;;0.30;0.30;;;;;;;;;;7406643;19;20165;-93
2023/03/20 20:19:00;;;;;;;0.60;0.60;;;;;;;;;;7400399;19;20587;-93
2023/03/20 20:21:26;;;;;;;0.30;0.30;;;;;;;;;;7397847;19;20140;-93
2023/03/20 20:24:14;;;;;;;0.30;0.30;;;;;;;;;;7400086;19;20200;-93
2023/03/20 20:26:41;;;;;;;0.30;0.30;;;;;;;;;;7398789;19;20165;-93
2023/03/20 20:29:20;;;;;;;0.47;0.47;;;;;;;;;;7396578;19;20141;-93
2023/03/20 20:31:47;;;;;;;0.30;0.30;;;;;;;;;;7404271;19;20200;-93
2023/03/20 20:34:13;;;;;;;0.27;0.27;;;;;;;;;;7400079;19;20147;-93
2023/03/20 20:37:00;;;;;;;0.30;0.30;;;;;;;;;;7397048;19;20180;-92
2023/03/20 20:39:46;;;;;;;0.80;0.80;;;;;;;;;;7397483;19;20200;-93
2023/03/20 20:42:13;;;;;;;0.30;0.30;;;;;;;;;;7397319;19;20217;-94
2023/03/20 20:44:40;;;;;;;0.33;0.33;;;;;;;;;;7398099;19;20157;-93
2023/03/20 20:47:07;;;;;;;0.40;0.40;;;;;;;;;;7398321;19;20133;-93
2023/03/20 20:49:34;;;;;;;0.37;0.37;;;;;;;;;;7398359;19;20148;-94
2023/03/20 20:52:01;;;;;;;0.50;0.50;;;;;;;;;;7401808;19;20156;-93
2023/03/20 20:54:28;;;;;;;0.60;0.60;;;;;;;;;;7401127;19;20487;-93
2023/03/20 20:56:54;;;;;;;0.33;0.33;;;;;;;;;;7402276;19;20200;-92
2023/03/20 20:59:21;;;;;;;0.30;0.30;;;;;;;;;;7402243;19;20201;-92
2023/03/20 21:01:48;;;;;;;0.53;0.53;;;;;;;;;;7401505;19;20140;-92
2023/03/20 21:04:15;;;;;;;0.60;0.60;;;;;;;;;;7400746;19;20137;-91
2023/03/20 21:06:41;;;;;;;0.47;0.47;;;;;;;;;;7397868;19;20177;-90
2023/03/20 21:09:28;;;;;;;0.30;0.30;;;;;;;;;;7391701;19;20227;-92
2023/03/20 21:11:54;;;;;;;0.20;0.20;;;;;;;;;;7395805;19;20129;-93
2023/03/20 21:14:21;;;;;;;0.70;0.70;;;;;;;;;;7395664;19;20149;-92
2023/03/20 21:16:47;;;;;;;0.30;0.30;;;;;;;;;;7394201;19;20508;-91
2023/03/20 21:19:14;;;;;;;0.30;0.30;;;;;;;;;;7393028;19;20183;-92
2023/03/20 21:21:40;;;;;;;0.30;0.30;;;;;;;;;;7393568;19;20129;-91
2023/03/20 21:24:10;;;;;;;0.30;0.30;;;;;;;;;;7399573;19;20140;-90
2023/03/20 21:27:01;;;;;;;2.00;0.70;;;;;;;;;;7393809;19;20141;-91
2023/03/20 21:29:28;;;;;;;0.37;0.37;;;;;;;;;;7391545;19;20169;-93
2023/03/20 21:31:54;;;;;;;0.60;0.60;;;;;;;;;;7393783;19;20607;-91
2023/03/20 21:34:21;;;;;;;0.50;0.50;;;;;;;;;;7394607;19;20129;-91
2023/03/20 21:36:51;;;;;;;0.40;0.40;;;;;;;;;;7394306;19;20129;-93
2023/03/20 21:39:18;;;;;;;0.77;0.40;;;;;;;;;;7392043;19;20156;-92
2023/03/20 21:41:49;;;;;;;0.50;0.50;;;;;;;;;;7394842;19;20172;-92
2023/03/20 21:44:16;;;;;;;0.57;0.50;;;;;;;;;;7394273;19;20149;-90
2023/03/20 21:47:10;;;;;;;2.83;0.67;;;;;;;;;;7393723;19;20601;-93
2023/03/20 21:50:07;;;;;;;0.40;0.40;;;;;;;;;;7397224;19;20137;-92
